American Integrity — WDD2875 — position and weather

sailwx.info

Track history (hours):
 
Tides and Currents Weather Stations Pressure Air Temp Water Temp Dewpoint Dewpoint Depression Visibility Wind Speed Wind Dir Waves Ship Positions

American Integrity

Owner: American Steamship Company, Williamsville, NY. More information available from US FCC via Universal Licensing System and Coast Guard Vessel Documentation Center.

Last reported at 2016-Jul-22 01:00 UTC. Time now 2016-Jul-25 15:53 UTC.
Position N 47°24' W 087°06'.

; draft 8 m.

Type: Cargo ship. MMSI: 367120990.

Wind from 260 at 18 knots

Barometer 1009.1 mb
Air temperature 19.4 ° C
Visibility: greater than 10.8 NM

Date/timePositionNaut miles runAvg speedWind from/ knotsBaromVisibWave heightAir tempDewpointWater temp
2016-Jul-22 01:00N 47°24' W 087°06'15811.4 260 / 181009.110.8 19.4
2016-Jul-21 11:07N 47°13' W 090°59'711.4
2016-Jul-21 10:33N 47°09' W 091°07'1111.3
2016-Jul-21 09:34N 47°04' W 091°21'1111.2
2016-Jul-21 08:32N 46°57' W 091°35'1111.2
2016-Jul-21 07:34N 46°51' W 091°48'1111.1
2016-Jul-21 06:33N 46°47' W 092°04'4 3.6
2016-Jul-21 05:33N 46°45' W 092°07'0 0.0
2016-Jul-21 04:33N 46°45' W 092°07'0 0.0
2016-Jul-21 03:33N 46°45' W 092°07'0 0.0
2016-Jul-21 02:33N 46°45' W 092°07'0 0.0
2016-Jul-21 01:33N 46°45' W 092°07'0 0.0
2016-Jul-21 00:33N 46°45' W 092°07'0 0.0
2016-Jul-20 23:33N 46°45' W 092°07'0 0.0
2016-Jul-20 22:34N 46°45' W 092°07'0 0.0
2016-Jul-20 21:33N 46°45' W 092°07'0 0.0
2016-Jul-20 20:34N 46°45' W 092°07'0 0.0
2016-Jul-20 19:34N 46°45' W 092°07'0 0.0
2016-Jul-20 18:34N 46°45' W 092°07'0 0.3
2016-Jul-20 17:34N 46°45' W 092°07'1 1.1
2016-Jul-20 16:34N 46°45' W 092°06'5 5.3
2016-Jul-20 15:33N 46°49' W 091°60'1010.2
2016-Jul-20 14:33N 46°54' W 091°47'33 9.7
2016-Jul-20 11:11N 47°10' W 091°06'4915.5
2016-Jul-20 08:00N 47°18' W 089°54'5010.0 180 / 131016.2 5.4 17.2
2016-Jul-20 03:00N 47°30' W 088°42'7813.0 150 / 131017.6 5.4 17.2
2016-Jul-19 21:00N 47°18' W 086°48'   150 / 71021.310.8 15.5 11.1
2016-Jul-15 08:21N 46°30' W 084°36'28010.8
2016-Jul-14 06:20N 47°03' W 091°22'911.6
2016-Jul-14 05:33N 46°58' W 091°34'1111.4
2016-Jul-14 04:33N 46°53' W 091°48'1211.6
2016-Jul-14 03:33N 46°48' W 092°03'4 4.0
2016-Jul-14 02:33N 46°45' W 092°07'0 0.0
2016-Jul-14 01:33N 46°45' W 092°07'0 0.0
2016-Jul-14 00:33N 46°45' W 092°07'0 0.0
2016-Jul-13 23:34N 46°45' W 092°07'0 0.0
2016-Jul-13 22:33N 46°45' W 092°07'0 0.0
2016-Jul-13 21:33N 46°45' W 092°07'0 0.0
2016-Jul-13 20:34N 46°45' W 092°07'0 0.0
2016-Jul-13 19:34N 46°45' W 092°07'0 0.0
2016-Jul-13 18:33N 46°45' W 092°07'0 0.0
2016-Jul-13 17:33N 46°45' W 092°07'0 0.1
2016-Jul-13 16:33N 46°45' W 092°07'5 5.0
2016-Jul-13 15:33N 46°48' W 092°02'1211.9
2016-Jul-13 14:33N 46°52' W 091°46'1211.9
2016-Jul-13 13:31N 46°57' W 091°29'13411.6
2016-Jul-13 02:00N 47°30' W 088°18'13712.5 230 / 251004.010.8 20.5
2016-Jul-12 15:00N 46°48' W 085°06'   190 / 301004.0 5.4 22.2
Track history (hours):
 
Tides and Currents Weather Stations Pressure Air Temp Water Temp Dewpoint Dewpoint Depression Visibility Wind Speed Wind Dir Waves Ship Positions

American Integrity

Owner: American Steamship Company, Williamsville, NY. More information available from US FCC via Universal Licensing System and Coast Guard Vessel Documentation Center.

Last reported at 2016-Jul-22 01:00 UTC. Time now 2016-Jul-25 15:53 UTC.
Position N 47°24' W 087°06'.

; draft 8 m.

Type: Cargo ship. MMSI: 367120990.

Wind from 260 at 18 knots

Barometer 1009.1 mb
Air temperature 19.4 ° C
Visibility: greater than 10.8 NM

Date/timePositionNaut miles runAvg speedWind from/ knotsBaromVisibWave heightAir tempDewpointWater temp
2016-Jul-22 01:00N 47°24' W 087°06'15811.4 260 / 181009.110.8 19.4
2016-Jul-21 11:07N 47°13' W 090°59'711.4
2016-Jul-21 10:33N 47°09' W 091°07'1111.3
2016-Jul-21 09:34N 47°04' W 091°21'1111.2
2016-Jul-21 08:32N 46°57' W 091°35'1111.2
2016-Jul-21 07:34N 46°51' W 091°48'1111.1
2016-Jul-21 06:33N 46°47' W 092°04'4 3.6
2016-Jul-21 05:33N 46°45' W 092°07'0 0.0
2016-Jul-21 04:33N 46°45' W 092°07'0 0.0
2016-Jul-21 03:33N 46°45' W 092°07'0 0.0
2016-Jul-21 02:33N 46°45' W 092°07'0 0.0
2016-Jul-21 01:33N 46°45' W 092°07'0 0.0
2016-Jul-21 00:33N 46°45' W 092°07'0 0.0
2016-Jul-20 23:33N 46°45' W 092°07'0 0.0
2016-Jul-20 22:34N 46°45' W 092°07'0 0.0
2016-Jul-20 21:33N 46°45' W 092°07'0 0.0
2016-Jul-20 20:34N 46°45' W 092°07'0 0.0
2016-Jul-20 19:34N 46°45' W 092°07'0 0.0
2016-Jul-20 18:34N 46°45' W 092°07'0 0.3
2016-Jul-20 17:34N 46°45' W 092°07'1 1.1
2016-Jul-20 16:34N 46°45' W 092°06'5 5.3
2016-Jul-20 15:33N 46°49' W 091°60'1010.2
2016-Jul-20 14:33N 46°54' W 091°47'33 9.7
2016-Jul-20 11:11N 47°10' W 091°06'4915.5
2016-Jul-20 08:00N 47°18' W 089°54'5010.0 180 / 131016.2 5.4 17.2
2016-Jul-20 03:00N 47°30' W 088°42'7813.0 150 / 131017.6 5.4 17.2
2016-Jul-19 21:00N 47°18' W 086°48'   150 / 71021.310.8 15.5 11.1
2016-Jul-15 08:21N 46°30' W 084°36'28010.8
2016-Jul-14 06:20N 47°03' W 091°22'911.6
2016-Jul-14 05:33N 46°58' W 091°34'1111.4
2016-Jul-14 04:33N 46°53' W 091°48'1211.6
2016-Jul-14 03:33N 46°48' W 092°03'4 4.0
2016-Jul-14 02:33N 46°45' W 092°07'0 0.0
2016-Jul-14 01:33N 46°45' W 092°07'0 0.0
2016-Jul-14 00:33N 46°45' W 092°07'0 0.0
2016-Jul-13 23:34N 46°45' W 092°07'0 0.0
2016-Jul-13 22:33N 46°45' W 092°07'0 0.0
2016-Jul-13 21:33N 46°45' W 092°07'0 0.0
2016-Jul-13 20:34N 46°45' W 092°07'0 0.0
2016-Jul-13 19:34N 46°45' W 092°07'0 0.0
2016-Jul-13 18:33N 46°45' W 092°07'0 0.0
2016-Jul-13 17:33N 46°45' W 092°07'0 0.1
2016-Jul-13 16:33N 46°45' W 092°07'5 5.0
2016-Jul-13 15:33N 46°48' W 092°02'1211.9
2016-Jul-13 14:33N 46°52' W 091°46'1211.9
2016-Jul-13 13:31N 46°57' W 091°29'13411.6
2016-Jul-13 02:00N 47°30' W 088°18'13712.5 230 / 251004.010.8 20.5
2016-Jul-12 15:00N 46°48' W 085°06'   190 / 301004.0 5.4 22.2

Dump ship's entire track history